sensor_id;sensor_type;location;lat;lon;timestamp;P1;durP1;ratioP1;P2;durP2;ratioP2
8881;SDS011;4477;48.736;9.176;2024-02-26T00:01:18;2.40;;;2.20;;
8881;SDS011;4477;48.736;9.176;2024-02-26T00:03:45;2.00;;;1.70;;
8881;SDS011;4477;48.736;9.176;2024-02-26T00:06:12;2.40;;;2.00;;
8881;SDS011;4477;48.736;9.176;2024-02-26T00:08:39;3.03;;;2.20;;
8881;SDS011;4477;48.736;9.176;2024-02-26T00:11:08;2.50;;;1.90;;
8881;SDS011;4477;48.736;9.176;2024-02-26T00:13:35;2.93;;;2.03;;
8881;SDS011;4477;48.736;9.176;2024-02-26T00:16:02;2.33;;;2.03;;
8881;SDS011;4477;48.736;9.176;2024-02-26T00:18:29;2.17;;;1.70;;
8881;SDS011;4477;48.736;9.176;2024-02-26T00:20:56;2.27;;;1.57;;
8881;SDS011;4477;48.736;9.176;2024-02-26T00:23:24;1.93;;;1.60;;
8881;SDS011;4477;48.736;9.176;2024-02-26T00:25:52;1.63;;;1.53;;
8881;SDS011;4477;48.736;9.176;2024-02-26T00:28:20;3.47;;;2.10;;
8881;SDS011;4477;48.736;9.176;2024-02-26T00:30:47;2.60;;;2.00;;
8881;SDS011;4477;48.736;9.176;2024-02-26T00:33:16;3.70;;;2.13;;
8881;SDS011;4477;48.736;9.176;2024-02-26T00:35:43;2.00;;;1.80;;
8881;SDS011;4477;48.736;9.176;2024-02-26T00:38:10;2.67;;;1.97;;
8881;SDS011;4477;48.736;9.176;2024-02-26T00:40:38;2.00;;;1.80;;
8881;SDS011;4477;48.736;9.176;2024-02-26T00:43:05;3.47;;;2.00;;
8881;SDS011;4477;48.736;9.176;2024-02-26T00:45:34;2.10;;;1.90;;
8881;SDS011;4477;48.736;9.176;2024-02-26T00:48:01;2.23;;;1.90;;
8881;SDS011;4477;48.736;9.176;2024-02-26T00:50:30;2.10;;;1.90;;
8881;SDS011;4477;48.736;9.176;2024-02-26T00:52:57;2.83;;;2.10;;
8881;SDS011;4477;48.736;9.176;2024-02-26T00:55:24;2.57;;;2.20;;
8881;SDS011;4477;48.736;9.176;2024-02-26T00:57:51;2.27;;;1.80;;
8881;SDS011;4477;48.736;9.176;2024-02-26T01:00:18;2.30;;;2.00;;
8881;SDS011;4477;48.736;9.176;2024-02-26T01:02:47;2.20;;;2.00;;
8881;SDS011;4477;48.736;9.176;2024-02-26T01:05:14;3.00;;;1.73;;
8881;SDS011;4477;48.736;9.176;2024-02-26T01:07:42;1.77;;;1.67;;
8881;SDS011;4477;48.736;9.176;2024-02-26T01:10:09;3.23;;;1.90;;
8881;SDS011;4477;48.736;9.176;2024-02-26T01:12:36;2.73;;;2.07;;
8881;SDS011;4477;48.736;9.176;2024-02-26T01:15:03;1.97;;;1.73;;
8881;SDS011;4477;48.736;9.176;2024-02-26T01:17:31;3.30;;;2.13;;
8881;SDS011;4477;48.736;9.176;2024-02-26T01:19:59;2.23;;;1.90;;
8881;SDS011;4477;48.736;9.176;2024-02-26T01:22:26;3.70;;;2.17;;
8881;SDS011;4477;48.736;9.176;2024-02-26T01:24:53;2.20;;;2.00;;
8881;SDS011;4477;48.736;9.176;2024-02-26T01:27:21;2.43;;;1.90;;
8881;SDS011;4477;48.736;9.176;2024-02-26T01:29:51;2.13;;;1.93;;
8881;SDS011;4477;48.736;9.176;2024-02-26T01:32:19;2.60;;;2.00;;
8881;SDS011;4477;48.736;9.176;2024-02-26T01:34:46;2.30;;;2.10;;
8881;SDS011;4477;48.736;9.176;2024-02-26T01:37:16;3.17;;;2.40;;
8881;SDS011;4477;48.736;9.176;2024-02-26T01:39:44;2.37;;;2.10;;
8881;SDS011;4477;48.736;9.176;2024-02-26T01:42:09;2.43;;;2.10;;
8881;SDS011;4477;48.736;9.176;2024-02-26T01:44:36;2.03;;;1.83;;
8881;SDS011;4477;48.736;9.176;2024-02-26T01:47:04;2.90;;;2.10;;
8881;SDS011;4477;48.736;9.176;2024-02-26T01:49:34;2.67;;;2.17;;
8881;SDS011;4477;48.736;9.176;2024-02-26T01:52:02;2.00;;;1.90;;
8881;SDS011;4477;48.736;9.176;2024-02-26T01:54:32;2.10;;;1.83;;
8881;SDS011;4477;48.736;9.176;2024-02-26T01:57:01;2.73;;;2.00;;
8881;SDS011;4477;48.736;9.176;2024-02-26T01:59:29;2.20;;;2.00;;
8881;SDS011;4477;48.736;9.176;2024-02-26T02:01:57;3.00;;;2.30;;
8881;SDS011;4477;48.736;9.176;2024-02-26T02:04:27;2.93;;;2.17;;
8881;SDS011;4477;48.736;9.176;2024-02-26T02:06:54;2.03;;;1.80;;
8881;SDS011;4477;48.736;9.176;2024-02-26T02:09:24;2.50;;;2.00;;
8881;SDS011;4477;48.736;9.176;2024-02-26T02:11:52;2.27;;;1.80;;
8881;SDS011;4477;48.736;9.176;2024-02-26T02:14:20;2.13;;;1.93;;
8881;SDS011;4477;48.736;9.176;2024-02-26T02:16:47;2.30;;;1.80;;
8881;SDS011;4477;48.736;9.176;2024-02-26T02:19:14;3.63;;;1.87;;
8881;SDS011;4477;48.736;9.176;2024-02-26T02:21:43;1.50;;;1.37;;
8881;SDS011;4477;48.736;9.176;2024-02-26T02:24:10;1.87;;;1.50;;
8881;SDS011;4477;48.736;9.176;2024-02-26T02:26:38;1.97;;;1.73;;
8881;SDS011;4477;48.736;9.176;2024-02-26T02:29:05;1.77;;;1.50;;
8881;SDS011;4477;48.736;9.176;2024-02-26T02:31:34;3.30;;;1.77;;
8881;SDS011;4477;48.736;9.176;2024-02-26T02:34:01;1.77;;;1.60;;
8881;SDS011;4477;48.736;9.176;2024-02-26T02:36:28;1.60;;;1.50;;
8881;SDS011;4477;48.736;9.176;2024-02-26T02:38:58;1.63;;;1.23;;
8881;SDS011;4477;48.736;9.176;2024-02-26T02:41:25;1.60;;;1.50;;
8881;SDS011;4477;48.736;9.176;2024-02-26T02:43:54;2.17;;;1.73;;
8881;SDS011;4477;48.736;9.176;2024-02-26T02:46:22;1.87;;;1.43;;
8881;SDS011;4477;48.736;9.176;2024-02-26T02:48:49;2.13;;;1.70;;
8881;SDS011;4477;48.736;9.176;2024-02-26T02:51:17;3.13;;;1.77;;
8881;SDS011;4477;48.736;9.176;2024-02-26T02:53:44;2.33;;;1.40;;
8881;SDS011;4477;48.736;9.176;2024-02-26T02:56:16;1.97;;;1.40;;
8881;SDS011;4477;48.736;9.176;2024-02-26T02:58:43;1.60;;;1.40;;
8881;SDS011;4477;48.736;9.176;2024-02-26T03:01:10;1.97;;;1.37;;
8881;SDS011;4477;48.736;9.176;2024-02-26T03:03:40;1.20;;;1.10;;
8881;SDS011;4477;48.736;9.176;2024-02-26T03:06:07;1.37;;;1.20;;
8881;SDS011;4477;48.736;9.176;2024-02-26T03:08:34;2.07;;;1.50;;
8881;SDS011;4477;48.736;9.176;2024-02-26T03:11:03;1.40;;;1.00;;
8881;SDS011;4477;48.736;9.176;2024-02-26T03:13:31;1.60;;;1.20;;
8881;SDS011;4477;48.736;9.176;2024-02-26T03:16:03;1.33;;;1.23;;
8881;SDS011;4477;48.736;9.176;2024-02-26T03:18:31;1.30;;;1.20;;
8881;SDS011;4477;48.736;9.176;2024-02-26T03:20:58;1.13;;;1.03;;
8881;SDS011;4477;48.736;9.176;2024-02-26T03:23:25;1.23;;;1.07;;
8881;SDS011;4477;48.736;9.176;2024-02-26T03:25:52;1.20;;;1.03;;
8881;SDS011;4477;48.736;9.176;2024-02-26T03:28:21;0.87;;;0.80;;
8881;SDS011;4477;48.736;9.176;2024-02-26T03:30:49;1.20;;;0.80;;
8881;SDS011;4477;48.736;9.176;2024-02-26T03:33:16;1.17;;;0.73;;
8881;SDS011;4477;48.736;9.176;2024-02-26T03:35:43;1.03;;;0.73;;
8881;SDS011;4477;48.736;9.176;2024-02-26T03:38:10;3.33;;;0.73;;
8881;SDS011;4477;48.736;9.176;2024-02-26T03:40:37;1.20;;;0.70;;
8881;SDS011;4477;48.736;9.176;2024-02-26T03:43:04;1.73;;;1.00;;
8881;SDS011;4477;48.736;9.176;2024-02-26T03:45:32;0.80;;;0.80;;
8881;SDS011;4477;48.736;9.176;2024-02-26T03:48:01;0.70;;;0.70;;
8881;SDS011;4477;48.736;9.176;2024-02-26T03:50:28;1.00;;;0.87;;
8881;SDS011;4477;48.736;9.176;2024-02-26T03:52:55;0.93;;;0.87;;
8881;SDS011;4477;48.736;9.176;2024-02-26T03:55:22;0.93;;;0.80;;
8881;SDS011;4477;48.736;9.176;2024-02-26T03:57:50;1.47;;;0.70;;
8881;SDS011;4477;48.736;9.176;2024-02-26T04:00:17;0.80;;;0.80;;
8881;SDS011;4477;48.736;9.176;2024-02-26T04:02:44;0.83;;;0.83;;
8881;SDS011;4477;48.736;9.176;2024-02-26T04:05:14;1.00;;;0.90;;
8881;SDS011;4477;48.736;9.176;2024-02-26T04:07:41;0.90;;;0.90;;
8881;SDS011;4477;48.736;9.176;2024-02-26T04:10:08;1.63;;;0.93;;
8881;SDS011;4477;48.736;9.176;2024-02-26T04:12:37;1.67;;;1.00;;
8881;SDS011;4477;48.736;9.176;2024-02-26T04:15:05;1.60;;;1.10;;
8881;SDS011;4477;48.736;9.176;2024-02-26T04:17:33;0.80;;;0.80;;
8881;SDS011;4477;48.736;9.176;2024-02-26T04:20:01;1.30;;;1.20;;
8881;SDS011;4477;48.736;9.176;2024-02-26T04:22:30;0.87;;;0.73;;
8881;SDS011;4477;48.736;9.176;2024-02-26T04:24:57;1.20;;;1.00;;
8881;SDS011;4477;48.736;9.176;2024-02-26T04:27:24;0.90;;;0.90;;
8881;SDS011;4477;48.736;9.176;2024-02-26T04:29:51;1.13;;;0.80;;
8881;SDS011;4477;48.736;9.176;2024-02-26T04:32:18;1.10;;;1.00;;
8881;SDS011;4477;48.736;9.176;2024-02-26T04:34:44;2.00;;;1.23;;
8881;SDS011;4477;48.736;9.176;2024-02-26T04:37:11;1.27;;;1.17;;
8881;SDS011;4477;48.736;9.176;2024-02-26T04:39:40;2.60;;;2.40;;
8881;SDS011;4477;48.736;9.176;2024-02-26T04:42:07;2.77;;;2.27;;
8881;SDS011;4477;48.736;9.176;2024-02-26T04:44:34;2.60;;;1.70;;
8881;SDS011;4477;48.736;9.176;2024-02-26T04:47:01;1.60;;;1.30;;
8881;SDS011;4477;48.736;9.176;2024-02-26T04:49:28;1.83;;;1.67;;
8881;SDS011;4477;48.736;9.176;2024-02-26T04:51:55;1.77;;;1.67;;
8881;SDS011;4477;48.736;9.176;2024-02-26T04:54:22;2.13;;;1.60;;
8881;SDS011;4477;48.736;9.176;2024-02-26T04:56:51;2.83;;;2.03;;
8881;SDS011;4477;48.736;9.176;2024-02-26T04:59:18;2.50;;;2.03;;
8881;SDS011;4477;48.736;9.176;2024-02-26T05:01:45;3.07;;;2.00;;
8881;SDS011;4477;48.736;9.176;2024-02-26T05:04:12;2.97;;;2.60;;
8881;SDS011;4477;48.736;9.176;2024-02-26T05:06:39;2.67;;;2.20;;
8881;SDS011;4477;48.736;9.176;2024-02-26T05:09:07;2.77;;;2.40;;
8881;SDS011;4477;48.736;9.176;2024-02-26T05:11:34;2.60;;;2.33;;
8881;SDS011;4477;48.736;9.176;2024-02-26T05:14:03;2.47;;;2.23;;
8881;SDS011;4477;48.736;9.176;2024-02-26T05:16:31;3.27;;;2.50;;
8881;SDS011;4477;48.736;9.176;2024-02-26T05:18:58;3.30;;;2.60;;
8881;SDS011;4477;48.736;9.176;2024-02-26T05:21:25;3.27;;;2.70;;
8881;SDS011;4477;48.736;9.176;2024-02-26T05:23:52;2.87;;;2.40;;
8881;SDS011;4477;48.736;9.176;2024-02-26T05:26:19;2.67;;;2.23;;
8881;SDS011;4477;48.736;9.176;2024-02-26T05:28:47;3.30;;;2.50;;
8881;SDS011;4477;48.736;9.176;2024-02-26T05:31:15;3.53;;;2.30;;
8881;SDS011;4477;48.736;9.176;2024-02-26T05:33:43;2.83;;;2.63;;
8881;SDS011;4477;48.736;9.176;2024-02-26T05:36:10;2.83;;;2.47;;
8881;SDS011;4477;48.736;9.176;2024-02-26T05:38:43;3.40;;;2.30;;
8881;SDS011;4477;48.736;9.176;2024-02-26T05:41:11;2.37;;;2.17;;
8881;SDS011;4477;48.736;9.176;2024-02-26T05:43:38;2.60;;;2.13;;
8881;SDS011;4477;48.736;9.176;2024-02-26T05:46:06;2.63;;;2.43;;
8881;SDS011;4477;48.736;9.176;2024-02-26T05:48:36;2.40;;;2.20;;
8881;SDS011;4477;48.736;9.176;2024-02-26T05:51:04;4.30;;;2.60;;
8881;SDS011;4477;48.736;9.176;2024-02-26T05:53:34;3.40;;;2.07;;
8881;SDS011;4477;48.736;9.176;2024-02-26T05:56:01;2.63;;;1.60;;
8881;SDS011;4477;48.736;9.176;2024-02-26T05:58:29;1.63;;;1.33;;
8881;SDS011;4477;48.736;9.176;2024-02-26T06:00:57;1.53;;;1.37;;
8881;SDS011;4477;48.736;9.176;2024-02-26T06:03:25;2.93;;;2.40;;
8881;SDS011;4477;48.736;9.176;2024-02-26T06:05:53;3.50;;;2.60;;
8881;SDS011;4477;48.736;9.176;2024-02-26T06:08:21;3.10;;;2.47;;
8881;SDS011;4477;48.736;9.176;2024-02-26T06:10:48;2.50;;;2.30;;
8881;SDS011;4477;48.736;9.176;2024-02-26T06:13:16;4.93;;;2.63;;
8881;SDS011;4477;48.736;9.176;2024-02-26T06:15:42;3.17;;;2.80;;
8881;SDS011;4477;48.736;9.176;2024-02-26T06:18:09;3.17;;;2.87;;
8881;SDS011;4477;48.736;9.176;2024-02-26T06:20:36;3.37;;;2.80;;
8881;SDS011;4477;48.736;9.176;2024-02-26T06:23:05;4.00;;;2.57;;
8881;SDS011;4477;48.736;9.176;2024-02-26T06:25:32;2.67;;;2.43;;
8881;SDS011;4477;48.736;9.176;2024-02-26T06:27:59;2.87;;;2.63;;
8881;SDS011;4477;48.736;9.176;2024-02-26T06:30:26;4.03;;;3.07;;
8881;SDS011;4477;48.736;9.176;2024-02-26T06:32:53;3.50;;;3.00;;
8881;SDS011;4477;48.736;9.176;2024-02-26T06:35:20;3.80;;;3.27;;
8881;SDS011;4477;48.736;9.176;2024-02-26T06:37:47;3.57;;;2.90;;
8881;SDS011;4477;48.736;9.176;2024-02-26T06:40:19;3.50;;;3.10;;
8881;SDS011;4477;48.736;9.176;2024-02-26T06:42:46;3.00;;;2.70;;
8881;SDS011;4477;48.736;9.176;2024-02-26T06:45:15;3.77;;;3.37;;
8881;SDS011;4477;48.736;9.176;2024-02-26T06:47:42;5.53;;;3.17;;
8881;SDS011;4477;48.736;9.176;2024-02-26T06:50:11;3.73;;;3.30;;
8881;SDS011;4477;48.736;9.176;2024-02-26T06:52:39;7.03;;;4.97;;
8881;SDS011;4477;48.736;9.176;2024-02-26T06:55:06;4.00;;;3.30;;
8881;SDS011;4477;48.736;9.176;2024-02-26T06:57:37;3.70;;;3.10;;
8881;SDS011;4477;48.736;9.176;2024-02-26T07:00:04;4.90;;;3.70;;
8881;SDS011;4477;48.736;9.176;2024-02-26T07:02:32;4.80;;;3.10;;
8881;SDS011;4477;48.736;9.176;2024-02-26T07:04:59;3.67;;;3.00;;
8881;SDS011;4477;48.736;9.176;2024-02-26T07:07:26;3.37;;;3.10;;
8881;SDS011;4477;48.736;9.176;2024-02-26T07:09:54;4.00;;;2.60;;
8881;SDS011;4477;48.736;9.176;2024-02-26T07:12:21;2.50;;;2.30;;
8881;SDS011;4477;48.736;9.176;2024-02-26T07:14:51;6.73;;;4.83;;
8881;SDS011;4477;48.736;9.176;2024-02-26T07:17:18;9.87;;;6.73;;
8881;SDS011;4477;48.736;9.176;2024-02-26T07:19:45;8.57;;;6.07;;
8881;SDS011;4477;48.736;9.176;2024-02-26T07:22:12;5.73;;;4.90;;
8881;SDS011;4477;48.736;9.176;2024-02-26T07:24:40;5.47;;;3.87;;
8881;SDS011;4477;48.736;9.176;2024-02-26T07:27:08;8.23;;;3.50;;
8881;SDS011;4477;48.736;9.176;2024-02-26T07:29:35;3.43;;;2.73;;
8881;SDS011;4477;48.736;9.176;2024-02-26T07:32:04;3.90;;;2.83;;
8881;SDS011;4477;48.736;9.176;2024-02-26T07:34:32;3.97;;;2.37;;
8881;SDS011;4477;48.736;9.176;2024-02-26T07:36:59;2.70;;;2.37;;
8881;SDS011;4477;48.736;9.176;2024-02-26T07:39:26;2.33;;;2.13;;
8881;SDS011;4477;48.736;9.176;2024-02-26T07:41:53;2.50;;;2.07;;
8881;SDS011;4477;48.736;9.176;2024-02-26T07:44:20;2.47;;;2.27;;
8881;SDS011;4477;48.736;9.176;2024-02-26T07:46:47;2.57;;;1.90;;
8881;SDS011;4477;48.736;9.176;2024-02-26T07:49:16;2.30;;;1.70;;
8881;SDS011;4477;48.736;9.176;2024-02-26T07:51:43;1.77;;;1.60;;
8881;SDS011;4477;48.736;9.176;2024-02-26T07:54:10;5.10;;;2.20;;
8881;SDS011;4477;48.736;9.176;2024-02-26T07:56:42;2.63;;;1.80;;
8881;SDS011;4477;48.736;9.176;2024-02-26T07:59:09;2.80;;;2.10;;
8881;SDS011;4477;48.736;9.176;2024-02-26T08:01:36;2.60;;;2.30;;
8881;SDS011;4477;48.736;9.176;2024-02-26T08:04:04;2.77;;;2.07;;
8881;SDS011;4477;48.736;9.176;2024-02-26T08:06:33;2.70;;;2.03;;
8881;SDS011;4477;48.736;9.176;2024-02-26T08:09:00;3.10;;;2.30;;
8881;SDS011;4477;48.736;9.176;2024-02-26T08:11:29;3.10;;;2.40;;
8881;SDS011;4477;48.736;9.176;2024-02-26T08:13:56;3.33;;;2.40;;
8881;SDS011;4477;48.736;9.176;2024-02-26T08:16:24;2.10;;;1.90;;
8881;SDS011;4477;48.736;9.176;2024-02-26T08:18:51;7.40;;;2.53;;
8881;SDS011;4477;48.736;9.176;2024-02-26T08:21:18;5.03;;;2.80;;
8881;SDS011;4477;48.736;9.176;2024-02-26T08:23:47;3.40;;;2.57;;
8881;SDS011;4477;48.736;9.176;2024-02-26T08:26:15;3.57;;;2.80;;
8881;SDS011;4477;48.736;9.176;2024-02-26T08:28:42;5.97;;;2.60;;
8881;SDS011;4477;48.736;9.176;2024-02-26T08:31:10;3.40;;;2.80;;
8881;SDS011;4477;48.736;9.176;2024-02-26T08:33:37;3.43;;;2.87;;
8881;SDS011;4477;48.736;9.176;2024-02-26T08:36:04;5.23;;;2.50;;
8881;SDS011;4477;48.736;9.176;2024-02-26T08:38:32;3.10;;;2.70;;
8881;SDS011;4477;48.736;9.176;2024-02-26T08:41:02;3.80;;;2.87;;
8881;SDS011;4477;48.736;9.176;2024-02-26T08:43:30;3.07;;;2.50;;
8881;SDS011;4477;48.736;9.176;2024-02-26T08:45:57;2.83;;;2.40;;
8881;SDS011;4477;48.736;9.176;2024-02-26T08:48:24;2.90;;;2.53;;
8881;SDS011;4477;48.736;9.176;2024-02-26T08:50:51;6.43;;;3.80;;
8881;SDS011;4477;48.736;9.176;2024-02-26T08:53:18;9.03;;;4.80;;
8881;SDS011;4477;48.736;9.176;2024-02-26T08:55:46;8.10;;;4.50;;
8881;SDS011;4477;48.736;9.176;2024-02-26T08:58:15;8.80;;;4.23;;
8881;SDS011;4477;48.736;9.176;2024-02-26T09:00:41;7.87;;;4.37;;
8881;SDS011;4477;48.736;9.176;2024-02-26T09:03:09;3.67;;;2.77;;
8881;SDS011;4477;48.736;9.176;2024-02-26T09:05:37;5.73;;;3.50;;
8881;SDS011;4477;48.736;9.176;2024-02-26T09:08:04;10.73;;;5.30;;
8881;SDS011;4477;48.736;9.176;2024-02-26T09:10:32;7.23;;;4.00;;
8881;SDS011;4477;48.736;9.176;2024-02-26T09:12:59;8.10;;;4.33;;
8881;SDS011;4477;48.736;9.176;2024-02-26T09:15:28;5.57;;;3.00;;
8881;SDS011;4477;48.736;9.176;2024-02-26T09:17:57;5.70;;;3.60;;
8881;SDS011;4477;48.736;9.176;2024-02-26T09:20:25;2.40;;;2.20;;
8881;SDS011;4477;48.736;9.176;2024-02-26T09:22:51;3.57;;;2.27;;
8881;SDS011;4477;48.736;9.176;2024-02-26T09:25:19;2.40;;;2.10;;
8881;SDS011;4477;48.736;9.176;2024-02-26T09:27:46;2.23;;;2.03;;
8881;SDS011;4477;48.736;9.176;2024-02-26T09:30:15;2.17;;;1.70;;
8881;SDS011;4477;48.736;9.176;2024-02-26T09:32:51;1.80;;;1.70;;
8881;SDS011;4477;48.736;9.176;2024-02-26T09:35:19;2.83;;;1.90;;
8881;SDS011;4477;48.736;9.176;2024-02-26T09:37:47;2.03;;;1.43;;
8881;SDS011;4477;48.736;9.176;2024-02-26T09:40:14;2.13;;;1.80;;
8881;SDS011;4477;48.736;9.176;2024-02-26T09:42:44;2.20;;;1.73;;
8881;SDS011;4477;48.736;9.176;2024-02-26T09:45:17;1.97;;;1.70;;
8881;SDS011;4477;48.736;9.176;2024-02-26T09:47:48;3.17;;;2.03;;
8881;SDS011;4477;48.736;9.176;2024-02-26T09:50:16;2.23;;;1.80;;
8881;SDS011;4477;48.736;9.176;2024-02-26T09:52:49;3.47;;;1.60;;
8881;SDS011;4477;48.736;9.176;2024-02-26T09:55:16;5.43;;;2.13;;
8881;SDS011;4477;48.736;9.176;2024-02-26T09:57:45;2.47;;;2.00;;
8881;SDS011;4477;48.736;9.176;2024-02-26T10:00:14;2.60;;;1.43;;
8881;SDS011;4477;48.736;9.176;2024-02-26T10:02:44;3.10;;;1.60;;
8881;SDS011;4477;48.736;9.176;2024-02-26T10:05:14;2.77;;;1.37;;
8881;SDS011;4477;48.736;9.176;2024-02-26T10:07:44;2.03;;;1.57;;
8881;SDS011;4477;48.736;9.176;2024-02-26T10:10:12;2.87;;;1.50;;
8881;SDS011;4477;48.736;9.176;2024-02-26T10:12:40;1.80;;;1.70;;
8881;SDS011;4477;48.736;9.176;2024-02-26T10:15:08;2.37;;;1.90;;
8881;SDS011;4477;48.736;9.176;2024-02-26T10:17:35;2.10;;;1.70;;
8881;SDS011;4477;48.736;9.176;2024-02-26T10:20:14;1.77;;;1.67;;
8881;SDS011;4477;48.736;9.176;2024-02-26T10:22:43;3.17;;;2.07;;
8881;SDS011;4477;48.736;9.176;2024-02-26T10:25:13;5.20;;;2.47;;
8881;SDS011;4477;48.736;9.176;2024-02-26T10:27:41;3.23;;;2.53;;
8881;SDS011;4477;48.736;9.176;2024-02-26T10:30:16;3.97;;;2.53;;
8881;SDS011;4477;48.736;9.176;2024-02-26T10:32:44;6.10;;;2.50;;
8881;SDS011;4477;48.736;9.176;2024-02-26T10:35:14;3.93;;;2.63;;
8881;SDS011;4477;48.736;9.176;2024-02-26T10:37:41;3.57;;;2.73;;
8881;SDS011;4477;48.736;9.176;2024-02-26T10:40:10;3.73;;;3.17;;
8881;SDS011;4477;48.736;9.176;2024-02-26T10:42:38;3.40;;;2.80;;
8881;SDS011;4477;48.736;9.176;2024-02-26T10:45:05;4.33;;;2.83;;
8881;SDS011;4477;48.736;9.176;2024-02-26T10:47:34;3.60;;;3.10;;
8881;SDS011;4477;48.736;9.176;2024-02-26T10:50:02;5.57;;;2.73;;
8881;SDS011;4477;48.736;9.176;2024-02-26T10:52:34;3.30;;;2.70;;
8881;SDS011;4477;48.736;9.176;2024-02-26T10:55:04;3.10;;;2.60;;
8881;SDS011;4477;48.736;9.176;2024-02-26T10:57:33;4.53;;;2.83;;
8881;SDS011;4477;48.736;9.176;2024-02-26T11:00:03;3.73;;;2.50;;
8881;SDS011;4477;48.736;9.176;2024-02-26T11:02:32;3.43;;;2.10;;
8881;SDS011;4477;48.736;9.176;2024-02-26T11:05:01;3.50;;;2.10;;
8881;SDS011;4477;48.736;9.176;2024-02-26T11:07:30;3.17;;;1.97;;
8881;SDS011;4477;48.736;9.176;2024-02-26T11:10:00;2.53;;;1.97;;
8881;SDS011;4477;48.736;9.176;2024-02-26T11:12:29;2.63;;;1.70;;
8881;SDS011;4477;48.736;9.176;2024-02-26T11:14:59;2.30;;;1.90;;
8881;SDS011;4477;48.736;9.176;2024-02-26T11:17:28;2.07;;;1.80;;
8881;SDS011;4477;48.736;9.176;2024-02-26T11:19:57;2.27;;;1.60;;
8881;SDS011;4477;48.736;9.176;2024-02-26T11:22:25;2.50;;;1.87;;
8881;SDS011;4477;48.736;9.176;2024-02-26T11:24:54;1.53;;;1.30;;
8881;SDS011;4477;48.736;9.176;2024-02-26T11:27:25;4.43;;;2.20;;
8881;SDS011;4477;48.736;9.176;2024-02-26T11:29:57;2.50;;;1.73;;
8881;SDS011;4477;48.736;9.176;2024-02-26T11:32:27;3.00;;;1.63;;
8881;SDS011;4477;48.736;9.176;2024-02-26T11:34:55;2.33;;;1.47;;
8881;SDS011;4477;48.736;9.176;2024-02-26T11:37:27;1.63;;;1.33;;
8881;SDS011;4477;48.736;9.176;2024-02-26T11:39:56;2.50;;;1.60;;
8881;SDS011;4477;48.736;9.176;2024-02-26T11:42:36;2.33;;;1.80;;
8881;SDS011;4477;48.736;9.176;2024-02-26T11:48:11;1.83;;;1.50;;
8881;SDS011;4477;48.736;9.176;2024-02-26T11:50:39;1.50;;;1.40;;
8881;SDS011;4477;48.736;9.176;2024-02-26T11:53:19;1.77;;;1.20;;
8881;SDS011;4477;48.736;9.176;2024-02-26T11:58:47;1.90;;;1.37;;
8881;SDS011;4477;48.736;9.176;2024-02-26T12:01:45;4.97;;;1.30;;
8881;SDS011;4477;48.736;9.176;2024-02-26T12:04:18;1.27;;;1.07;;
8881;SDS011;4477;48.736;9.176;2024-02-26T12:06:48;1.40;;;1.00;;
8881;SDS011;4477;48.736;9.176;2024-02-26T12:09:36;1.80;;;1.40;;
8881;SDS011;4477;48.736;9.176;2024-02-26T12:12:05;2.70;;;1.43;;
8881;SDS011;4477;48.736;9.176;2024-02-26T12:14:38;3.27;;;1.30;;
8881;SDS011;4477;48.736;9.176;2024-02-26T12:17:06;1.20;;;1.10;;
8881;SDS011;4477;48.736;9.176;2024-02-26T12:19:45;1.57;;;1.10;;
8881;SDS011;4477;48.736;9.176;2024-02-26T12:22:12;2.90;;;1.27;;
8881;SDS011;4477;48.736;9.176;2024-02-26T12:24:42;1.40;;;0.90;;
8881;SDS011;4477;48.736;9.176;2024-02-26T12:27:09;1.83;;;1.23;;
8881;SDS011;4477;48.736;9.176;2024-02-26T12:29:39;2.23;;;1.53;;
8881;SDS011;4477;48.736;9.176;2024-02-26T12:32:06;2.30;;;1.10;;
8881;SDS011;4477;48.736;9.176;2024-02-26T12:34:34;1.87;;;1.17;;
8881;SDS011;4477;48.736;9.176;2024-02-26T12:37:01;1.97;;;1.20;;
8881;SDS011;4477;48.736;9.176;2024-02-26T12:39:29;1.23;;;1.10;;
8881;SDS011;4477;48.736;9.176;2024-02-26T12:41:57;2.47;;;1.20;;
8881;SDS011;4477;48.736;9.176;2024-02-26T12:44:25;1.00;;;0.90;;
8881;SDS011;4477;48.736;9.176;2024-02-26T12:47:01;1.60;;;1.30;;
8881;SDS011;4477;48.736;9.176;2024-02-26T12:49:29;1.43;;;1.33;;
8881;SDS011;4477;48.736;9.176;2024-02-26T12:51:56;1.70;;;1.40;;
8881;SDS011;4477;48.736;9.176;2024-02-26T12:54:27;3.67;;;1.30;;
8881;SDS011;4477;48.736;9.176;2024-02-26T12:56:56;2.30;;;1.10;;
8881;SDS011;4477;48.736;9.176;2024-02-26T12:59:25;1.40;;;1.03;;
8881;SDS011;4477;48.736;9.176;2024-02-26T13:01:53;2.27;;;1.20;;
8881;SDS011;4477;48.736;9.176;2024-02-26T13:04:23;2.63;;;2.07;;
8881;SDS011;4477;48.736;9.176;2024-02-26T13:06:55;3.23;;;1.87;;
8881;SDS011;4477;48.736;9.176;2024-02-26T13:09:26;1.73;;;1.20;;
8881;SDS011;4477;48.736;9.176;2024-02-26T13:11:54;1.80;;;1.00;;
8881;SDS011;4477;48.736;9.176;2024-02-26T13:14:21;1.43;;;1.27;;
8881;SDS011;4477;48.736;9.176;2024-02-26T13:16:54;1.20;;;0.80;;
8881;SDS011;4477;48.736;9.176;2024-02-26T13:19:24;1.73;;;0.70;;
8881;SDS011;4477;48.736;9.176;2024-02-26T13:21:53;2.57;;;1.30;;
8881;SDS011;4477;48.736;9.176;2024-02-26T13:24:21;2.80;;;1.60;;
8881;SDS011;4477;48.736;9.176;2024-02-26T13:26:56;1.50;;;1.27;;
8881;SDS011;4477;48.736;9.176;2024-02-26T13:29:23;2.07;;;1.17;;
8881;SDS011;4477;48.736;9.176;2024-02-26T13:31:55;1.03;;;0.90;;
8881;SDS011;4477;48.736;9.176;2024-02-26T13:34:26;1.47;;;1.17;;
8881;SDS011;4477;48.736;9.176;2024-02-26T13:36:56;1.60;;;1.17;;
8881;SDS011;4477;48.736;9.176;2024-02-26T13:39:24;1.30;;;1.00;;
8881;SDS011;4477;48.736;9.176;2024-02-26T13:41:52;2.03;;;0.80;;
8881;SDS011;4477;48.736;9.176;2024-02-26T13:44:20;2.70;;;1.77;;
8881;SDS011;4477;48.736;9.176;2024-02-26T13:46:47;1.77;;;1.07;;
8881;SDS011;4477;48.736;9.176;2024-02-26T13:49:15;2.30;;;1.80;;
8881;SDS011;4477;48.736;9.176;2024-02-26T13:51:44;3.27;;;1.37;;
8881;SDS011;4477;48.736;9.176;2024-02-26T13:54:11;3.63;;;1.67;;
8881;SDS011;4477;48.736;9.176;2024-02-26T13:56:39;2.23;;;1.23;;
8881;SDS011;4477;48.736;9.176;2024-02-26T13:59:06;1.63;;;1.10;;
8881;SDS011;4477;48.736;9.176;2024-02-26T14:01:34;3.90;;;1.40;;
8881;SDS011;4477;48.736;9.176;2024-02-26T14:04:01;1.70;;;1.20;;
8881;SDS011;4477;48.736;9.176;2024-02-26T14:06:29;2.23;;;1.47;;
8881;SDS011;4477;48.736;9.176;2024-02-26T14:08:58;1.80;;;1.40;;
8881;SDS011;4477;48.736;9.176;2024-02-26T14:11:25;1.53;;;1.30;;
8881;SDS011;4477;48.736;9.176;2024-02-26T14:13:54;2.53;;;1.47;;
8881;SDS011;4477;48.736;9.176;2024-02-26T14:16:22;2.13;;;1.50;;
8881;SDS011;4477;48.736;9.176;2024-02-26T14:18:49;1.27;;;1.10;;
8881;SDS011;4477;48.736;9.176;2024-02-26T14:21:17;2.53;;;1.67;;
8881;SDS011;4477;48.736;9.176;2024-02-26T14:23:44;2.37;;;1.50;;
8881;SDS011;4477;48.736;9.176;2024-02-26T14:26:16;3.67;;;2.10;;
8881;SDS011;4477;48.736;9.176;2024-02-26T14:28:43;4.33;;;2.80;;
8881;SDS011;4477;48.736;9.176;2024-02-26T14:31:11;2.10;;;1.13;;
8881;SDS011;4477;48.736;9.176;2024-02-26T14:33:39;2.20;;;0.90;;
8881;SDS011;4477;48.736;9.176;2024-02-26T14:36:06;0.80;;;0.77;;
8881;SDS011;4477;48.736;9.176;2024-02-26T14:38:38;0.83;;;0.70;;
8881;SDS011;4477;48.736;9.176;2024-02-26T14:41:05;1.20;;;0.90;;
8881;SDS011;4477;48.736;9.176;2024-02-26T14:43:39;1.37;;;1.00;;
8881;SDS011;4477;48.736;9.176;2024-02-26T14:46:07;1.00;;;0.83;;
8881;SDS011;4477;48.736;9.176;2024-02-26T14:48:36;2.20;;;0.87;;
8881;SDS011;4477;48.736;9.176;2024-02-26T14:51:04;1.20;;;0.80;;
8881;SDS011;4477;48.736;9.176;2024-02-26T14:53:33;0.87;;;0.67;;
8881;SDS011;4477;48.736;9.176;2024-02-26T14:56:01;0.83;;;0.80;;
8881;SDS011;4477;48.736;9.176;2024-02-26T14:58:28;1.07;;;0.93;;
8881;SDS011;4477;48.736;9.176;2024-02-26T15:00:58;1.30;;;0.97;;
8881;SDS011;4477;48.736;9.176;2024-02-26T15:03:25;1.37;;;1.07;;
8881;SDS011;4477;48.736;9.176;2024-02-26T15:05:52;2.10;;;1.00;;
8881;SDS011;4477;48.736;9.176;2024-02-26T15:08:20;1.17;;;1.00;;
8881;SDS011;4477;48.736;9.176;2024-02-26T15:10:47;1.47;;;1.00;;
8881;SDS011;4477;48.736;9.176;2024-02-26T15:13:14;1.63;;;0.90;;
8881;SDS011;4477;48.736;9.176;2024-02-26T15:15:43;1.30;;;1.03;;
8881;SDS011;4477;48.736;9.176;2024-02-26T15:18:13;2.73;;;1.00;;
8881;SDS011;4477;48.736;9.176;2024-02-26T15:20:41;1.70;;;1.07;;
8881;SDS011;4477;48.736;9.176;2024-02-26T15:23:09;1.77;;;0.97;;
8881;SDS011;4477;48.736;9.176;2024-02-26T15:25:36;1.50;;;1.10;;
8881;SDS011;4477;48.736;9.176;2024-02-26T15:28:06;1.67;;;1.00;;